createdAt,value
2023-02-23T00:01:56.004Z,17.17
2023-02-23T00:04:29.442Z,18.63
2023-02-23T00:07:10.826Z,18.25
2023-02-23T00:09:37.181Z,17.13
2023-02-23T00:12:09.079Z,17.45
2023-02-23T00:14:38.431Z,17.40
2023-02-23T00:17:10.943Z,16.73
2023-02-23T00:19:37.749Z,17.45
2023-02-23T00:22:04.239Z,18.05
2023-02-23T00:24:31.081Z,18.70
2023-02-23T00:27:06.414Z,17.50
2023-02-23T00:29:38.894Z,17.73
2023-02-23T00:32:05.625Z,18.90
2023-02-23T00:34:35.772Z,17.33
2023-02-23T00:37:04.575Z,18.27
2023-02-23T00:39:30.980Z,18.47
2023-02-23T00:42:02.722Z,18.30
2023-02-23T00:44:29.739Z,18.77
2023-02-23T00:46:56.103Z,18.55
2023-02-23T00:49:23.473Z,17.88
2023-02-23T00:51:54.088Z,19.07
2023-02-23T00:54:22.160Z,18.73
2023-02-23T00:56:52.001Z,18.38
2023-02-23T00:59:38.361Z,17.25
2023-02-23T01:02:08.960Z,18.42
2023-02-23T01:04:35.346Z,18.47
2023-02-23T01:07:04.126Z,18.98
2023-02-23T01:09:30.536Z,19.58
2023-02-23T01:12:01.685Z,19.25
2023-02-23T01:14:34.196Z,20.35
2023-02-23T01:17:01.607Z,18.90
2023-02-23T01:19:29.141Z,18.70
2023-02-23T01:22:03.639Z,19.73
2023-02-23T01:24:30.112Z,19.55
2023-02-23T01:26:56.651Z,19.65
2023-02-23T01:29:29.452Z,20.80
2023-02-23T01:31:56.100Z,18.08
2023-02-23T01:34:23.388Z,20.00
2023-02-23T01:36:50.850Z,18.30
2023-02-23T01:39:20.230Z,19.75
2023-02-23T01:41:46.734Z,19.23
2023-02-23T01:44:20.064Z,19.45
2023-02-23T01:47:06.234Z,20.00
2023-02-23T01:49:34.690Z,19.05
2023-02-23T01:52:42.128Z,20.17
2023-02-23T01:55:13.047Z,18.73
2023-02-23T01:57:41.654Z,19.77
2023-02-23T02:00:15.250Z,20.48
2023-02-23T02:02:41.844Z,18.88
2023-02-23T02:05:14.097Z,19.92
2023-02-23T02:07:47.191Z,20.10
2023-02-23T02:10:13.798Z,20.13
2023-02-23T02:12:54.610Z,19.85
2023-02-23T02:15:38.678Z,19.45
2023-02-23T02:18:53.597Z,22.77
2023-02-23T02:21:47.852Z,20.00
2023-02-23T02:24:35.782Z,19.13
2023-02-23T02:27:21.249Z,18.80
2023-02-23T02:30:18.738Z,20.38
2023-02-23T02:33:19.222Z,19.42
2023-02-23T02:36:08.217Z,18.03
2023-02-23T02:38:54.273Z,20.38
2023-02-23T02:41:51.288Z,18.65
2023-02-23T02:44:23.782Z,19.10
2023-02-23T02:47:00.984Z,20.48
2023-02-23T02:49:48.982Z,19.43
2023-02-23T02:52:37.765Z,20.08
2023-02-23T02:55:14.894Z,20.08
2023-02-23T02:57:53.375Z,18.45
2023-02-23T03:00:53.570Z,19.65
2023-02-23T03:03:54.333Z,19.10
2023-02-23T03:06:56.223Z,20.10
2023-02-23T03:10:04.021Z,20.95
2023-02-23T03:13:20.538Z,18.27
2023-02-23T03:16:35.217Z,19.52
2023-02-23T03:19:47.507Z,18.17
2023-02-23T03:22:43.140Z,18.67
2023-02-23T03:25:51.167Z,18.95
2023-02-23T03:28:48.910Z,19.67
2023-02-23T03:31:53.639Z,19.23
2023-02-23T03:34:45.595Z,19.30
2023-02-23T03:37:38.093Z,19.63
2023-02-23T03:40:39.122Z,20.30
2023-02-23T03:43:31.002Z,18.98
2023-02-23T03:46:23.433Z,19.45
2023-02-23T03:49:14.578Z,18.43
2023-02-23T03:52:03.221Z,19.45
2023-02-23T03:55:12.129Z,19.33
2023-02-23T03:58:00.254Z,19.75
2023-02-23T04:00:51.866Z,18.92
2023-02-23T04:03:39.556Z,19.90
2023-02-23T04:06:41.049Z,19.83
2023-02-23T04:09:39.617Z,19.27
2023-02-23T04:12:52.214Z,18.88
2023-02-23T04:15:38.943Z,18.05
2023-02-23T04:18:14.206Z,19.90
2023-02-23T04:20:41.871Z,18.40
2023-02-23T04:23:14.518Z,18.73
2023-02-23T04:25:48.529Z,18.55
2023-02-23T04:28:23.744Z,17.88
2023-02-23T04:30:55.342Z,19.37
2023-02-23T04:33:22.679Z,19.23
2023-02-23T04:35:58.437Z,19.63
2023-02-23T04:38:24.859Z,18.65
2023-02-23T04:41:02.476Z,17.88
2023-02-23T04:43:31.028Z,19.33
2023-02-23T04:45:57.603Z,18.65
2023-02-23T04:48:26.728Z,19.67
2023-02-23T04:50:57.547Z,17.90
2023-02-23T04:53:24.051Z,19.40
2023-02-23T04:55:57.716Z,18.33
2023-02-23T04:58:24.258Z,19.63
2023-02-23T05:00:50.821Z,20.77
2023-02-23T05:03:23.433Z,18.08
2023-02-23T05:05:49.889Z,19.83
2023-02-23T05:08:21.337Z,20.07
2023-02-23T05:10:55.839Z,16.92
2023-02-23T05:13:22.259Z,18.63
2023-02-23T05:15:59.101Z,19.20
2023-02-23T05:18:26.428Z,17.95
2023-02-23T05:21:12.566Z,18.13
2023-02-23T05:23:41.130Z,17.95
2023-02-23T05:26:10.098Z,18.80
2023-02-23T05:28:38.606Z,18.10
2023-02-23T05:31:07.478Z,19.13
2023-02-23T05:33:35.490Z,19.10
2023-02-23T05:36:05.470Z,17.75
2023-02-23T05:38:46.306Z,18.52
2023-02-23T05:41:16.876Z,19.00
2023-02-23T05:43:52.387Z,19.20
2023-02-23T05:46:22.726Z,18.47
2023-02-23T05:49:01.345Z,17.80
2023-02-23T05:51:33.943Z,18.38
2023-02-23T05:54:01.238Z,17.75
2023-02-23T05:56:43.068Z,20.88
2023-02-23T05:59:14.211Z,18.60
2023-02-23T06:01:40.985Z,18.73
2023-02-23T06:04:23.376Z,17.77
2023-02-23T06:06:50.093Z,18.70
2023-02-23T06:09:18.554Z,17.92
2023-02-23T06:11:47.051Z,17.17
2023-02-23T06:14:13.729Z,17.63
2023-02-23T06:16:45.369Z,18.58
2023-02-23T06:19:11.984Z,16.73
2023-02-23T06:21:41.107Z,17.65
2023-02-23T06:24:07.595Z,17.00
2023-02-23T06:26:35.242Z,17.52
2023-02-23T06:29:02.700Z,16.98
2023-02-23T06:31:29.282Z,15.88
2023-02-23T06:33:57.824Z,16.05
2023-02-23T06:36:25.239Z,15.73
2023-02-23T06:38:57.048Z,17.30
2023-02-23T06:41:27.783Z,17.20
2023-02-23T06:43:55.624Z,15.85
2023-02-23T06:46:23.016Z,17.15
2023-02-23T06:48:49.449Z,16.53
2023-02-23T06:51:18.246Z,16.92
2023-02-23T06:53:44.792Z,16.08
2023-02-23T06:56:13.948Z,15.88
2023-02-23T06:58:43.045Z,16.73
2023-02-23T07:01:13.960Z,15.63
2023-02-23T07:03:40.394Z,16.40
2023-02-23T07:06:07.285Z,16.40
2023-02-23T07:08:40.002Z,16.92
2023-02-23T07:11:15.815Z,16.75
2023-02-23T07:13:42.684Z,15.17
2023-02-23T07:16:09.294Z,16.17
2023-02-23T07:18:36.906Z,16.35
2023-02-23T07:21:03.423Z,15.30
2023-02-23T07:23:31.460Z,17.15
2023-02-23T07:26:01.032Z,15.43
2023-02-23T07:28:28.773Z,15.77
2023-02-23T07:30:58.307Z,16.52
2023-02-23T07:33:25.243Z,17.67
2023-02-23T07:35:53.748Z,15.90
2023-02-23T07:38:20.160Z,15.87
2023-02-23T07:40:46.553Z,16.40
2023-02-23T07:43:14.004Z,15.73
2023-02-23T07:45:47.570Z,15.82
2023-02-23T07:48:14.474Z,16.45
2023-02-23T07:50:42.953Z,16.87
2023-02-23T07:53:09.764Z,17.35
2023-02-23T07:55:56.167Z,17.10
2023-02-23T07:58:22.602Z,17.17
2023-02-23T08:00:50.096Z,18.33
2023-02-23T08:03:16.468Z,17.07
2023-02-23T08:05:44.853Z,17.63
2023-02-23T08:08:12.021Z,16.60
2023-02-23T08:10:39.231Z,16.95
2023-02-23T08:13:06.051Z,17.77
2023-02-23T08:15:32.672Z,17.93
2023-02-23T08:17:59.073Z,17.83
2023-02-23T08:20:25.541Z,18.05
2023-02-23T08:22:55.767Z,16.23
2023-02-23T08:25:22.542Z,16.67
2023-02-23T08:27:52.054Z,16.20
2023-02-23T08:30:19.889Z,16.25
2023-02-23T08:32:46.415Z,17.20
2023-02-23T08:35:13.044Z,16.60
2023-02-23T08:37:39.670Z,15.63
2023-02-23T08:40:06.504Z,15.97
2023-02-23T08:42:32.897Z,15.05
2023-02-23T08:45:01.363Z,16.08
2023-02-23T08:47:28.045Z,15.35
2023-02-23T08:49:54.409Z,16.67
2023-02-23T08:52:21.512Z,15.37
2023-02-23T08:54:48.047Z,18.17
2023-02-23T08:57:14.572Z,15.77
2023-02-23T08:59:41.612Z,16.45
2023-02-23T09:02:12.596Z,14.93
2023-02-23T09:04:41.841Z,14.87
2023-02-23T09:07:13.069Z,14.38
2023-02-23T09:09:39.690Z,14.98
2023-02-23T09:12:06.256Z,12.32
2023-02-23T09:14:32.672Z,13.35
2023-02-23T09:16:59.175Z,13.70
2023-02-23T09:19:27.550Z,13.30
2023-02-23T09:21:54.286Z,13.32
2023-02-23T09:24:22.120Z,13.43
2023-02-23T09:26:49.200Z,13.52
2023-02-23T09:29:15.825Z,11.63
2023-02-23T09:31:43.678Z,11.90
2023-02-23T09:34:12.627Z,12.43
2023-02-23T09:36:39.129Z,11.35
2023-02-23T09:39:05.660Z,12.07
2023-02-23T09:41:56.014Z,10.53
2023-02-23T09:44:22.315Z,11.05
2023-02-23T09:47:21.278Z,10.85
2023-02-23T09:49:50.947Z,10.73
2023-02-23T09:52:22.328Z,11.43
2023-02-23T09:54:48.897Z,11.17
2023-02-23T09:57:19.987Z,11.32
2023-02-23T09:59:46.585Z,11.43
2023-02-23T10:02:19.377Z,11.77
2023-02-23T10:04:48.860Z,11.55
2023-02-23T10:07:30.053Z,10.23
2023-02-23T10:10:21.970Z,11.00
2023-02-23T10:13:04.250Z,10.80
2023-02-23T10:15:56.105Z,12.23
2023-02-23T10:18:46.788Z,10.90
2023-02-23T10:21:19.312Z,12.17
2023-02-23T10:23:56.539Z,10.70
2023-02-23T10:26:26.585Z,11.98
2023-02-23T10:28:56.008Z,10.65
2023-02-23T10:31:43.008Z,10.35
2023-02-23T10:34:18.142Z,9.37
2023-02-23T10:36:52.589Z,9.65
2023-02-23T10:39:19.287Z,9.48
2023-02-23T10:41:46.597Z,9.57
2023-02-23T10:44:21.269Z,9.38
2023-02-23T10:46:55.688Z,10.03
2023-02-23T10:49:30.373Z,9.57
2023-02-23T10:52:02.998Z,9.38
2023-02-23T10:54:45.657Z,9.18
2023-02-23T10:57:27.882Z,9.13
2023-02-23T11:00:15.937Z,9.73
2023-02-23T11:02:51.823Z,8.10
2023-02-23T11:05:50.491Z,8.95
2023-02-23T11:08:22.533Z,8.27
2023-02-23T11:11:09.395Z,8.88
2023-02-23T11:13:44.550Z,7.90
2023-02-23T11:16:30.437Z,8.05
2023-02-23T11:18:58.707Z,9.77
2023-02-23T11:21:39.011Z,8.55
2023-02-23T11:24:19.309Z,8.07
2023-02-23T11:26:48.762Z,7.87
2023-02-23T11:29:25.910Z,12.50
2023-02-23T11:31:58.796Z,9.57
2023-02-23T11:34:32.249Z,8.60
2023-02-23T11:37:08.299Z,9.00
2023-02-23T11:39:35.145Z,8.83
2023-02-23T11:42:20.887Z,7.75
2023-02-23T11:45:06.090Z,7.80
2023-02-23T11:47:38.689Z,6.15
2023-02-23T11:50:07.112Z,7.85
2023-02-23T11:52:36.446Z,6.30
2023-02-23T11:55:07.072Z,6.20
2023-02-23T11:57:35.694Z,6.60
2023-02-23T12:00:10.896Z,6.28
2023-02-23T12:03:07.952Z,6.82
2023-02-23T12:05:34.534Z,7.20
2023-02-23T12:08:15.972Z,6.88
2023-02-23T12:10:47.600Z,8.27
2023-02-23T12:13:27.891Z,7.68
2023-02-23T12:16:07.189Z,7.53
2023-02-23T12:18:40.256Z,7.37
2023-02-23T12:21:23.959Z,7.00
2023-02-23T12:23:54.953Z,7.38
2023-02-23T12:26:23.426Z,8.25
2023-02-23T12:28:58.662Z,6.22
2023-02-23T12:31:34.998Z,7.53
2023-02-23T12:34:18.293Z,8.05
2023-02-23T12:36:55.989Z,7.80
2023-02-23T12:39:35.026Z,7.43
2023-02-23T12:42:11.729Z,7.20
2023-02-23T12:44:47.000Z,7.33
2023-02-23T12:47:24.845Z,6.70
2023-02-23T12:50:07.533Z,7.60
2023-02-23T12:52:37.283Z,6.63
2023-02-23T12:55:09.444Z,7.28
2023-02-23T12:58:04.224Z,5.90
2023-02-23T13:00:58.335Z,6.70
2023-02-23T13:03:52.712Z,6.82
2023-02-23T13:06:36.928Z,7.00
2023-02-23T13:09:22.110Z,5.85
2023-02-23T13:11:56.756Z,6.17
2023-02-23T13:14:39.923Z,5.78
2023-02-23T13:17:25.751Z,5.95
2023-02-23T13:19:58.891Z,6.75
2023-02-23T13:22:46.373Z,6.18
2023-02-23T13:25:33.944Z,6.57
2023-02-23T13:28:01.992Z,6.13
2023-02-23T13:30:37.062Z,6.40
2023-02-23T13:33:14.575Z,6.57
2023-02-23T13:35:42.319Z,6.43
2023-02-23T13:38:25.799Z,7.43
2023-02-23T13:41:30.133Z,6.40
2023-02-23T13:44:07.924Z,5.88
2023-02-23T13:46:42.621Z,6.03
2023-02-23T13:49:51.141Z,6.13
2023-02-23T13:52:31.434Z,5.47
2023-02-23T13:55:03.774Z,6.32
2023-02-23T13:57:37.197Z,5.95
2023-02-23T14:00:04.482Z,6.43
2023-02-23T14:02:37.643Z,6.38
2023-02-23T14:05:30.817Z,6.90
2023-02-23T14:08:02.406Z,5.88
2023-02-23T14:10:37.945Z,6.50
2023-02-23T14:13:13.486Z,6.10
2023-02-23T14:15:44.347Z,5.82
2023-02-23T14:18:25.186Z,5.77
2023-02-23T14:21:18.568Z,6.20
2023-02-23T14:24:02.229Z,5.80
2023-02-23T14:26:28.567Z,5.60
2023-02-23T14:29:17.075Z,5.93
2023-02-23T14:32:03.609Z,6.03
2023-02-23T14:34:47.593Z,5.70
2023-02-23T14:37:27.940Z,5.93
2023-02-23T14:39:57.324Z,6.55
2023-02-23T14:42:27.034Z,6.55
2023-02-23T14:44:55.210Z,8.10
2023-02-23T14:47:27.329Z,6.93
2023-02-23T14:50:01.437Z,8.20
2023-02-23T14:52:41.436Z,7.53
2023-02-23T14:55:10.841Z,8.57
2023-02-23T14:57:39.349Z,9.10
2023-02-23T15:00:15.130Z,8.55
2023-02-23T15:02:55.488Z,9.73
2023-02-23T15:05:25.482Z,9.20
2023-02-23T15:07:54.019Z,10.45
2023-02-23T15:10:28.281Z,9.80
2023-02-23T15:12:55.841Z,10.18
2023-02-23T15:15:27.201Z,10.82
2023-02-23T15:17:58.078Z,10.48
2023-02-23T15:20:32.716Z,10.27
2023-02-23T15:23:02.795Z,6.33
2023-02-23T15:25:40.248Z,4.57
2023-02-23T15:28:29.524Z,2.83
2023-02-23T15:31:00.983Z,2.95
2023-02-23T15:33:30.984Z,2.47
2023-02-23T15:36:03.656Z,3.67
2023-02-23T15:38:43.594Z,3.08
2023-02-23T15:41:23.237Z,3.08
2023-02-23T15:43:49.742Z,2.63
2023-02-23T15:46:24.541Z,2.47
2023-02-23T15:48:53.751Z,2.50
2023-02-23T15:51:32.694Z,3.30
2023-02-23T15:54:01.524Z,3.83
2023-02-23T15:56:30.472Z,2.97
2023-02-23T15:59:02.658Z,3.03
2023-02-23T16:01:31.580Z,2.20
2023-02-23T16:04:13.039Z,2.03
2023-02-23T16:06:52.806Z,2.00
2023-02-23T16:09:24.039Z,1.70
2023-02-23T16:11:54.604Z,2.22
2023-02-23T16:14:22.652Z,2.03
2023-02-23T16:17:08.510Z,1.80
2023-02-23T16:19:40.717Z,3.38
2023-02-23T16:22:21.571Z,2.35
2023-02-23T16:24:58.046Z,2.70
2023-02-23T16:27:26.612Z,2.90
2023-02-23T16:30:06.659Z,3.10
2023-02-23T16:32:45.351Z,3.30
2023-02-23T16:35:19.519Z,2.35
2023-02-23T16:37:58.192Z,2.60
2023-02-23T16:40:25.305Z,3.10
2023-02-23T16:42:53.354Z,1.90
2023-02-23T16:45:21.258Z,3.28
2023-02-23T16:47:48.373Z,2.55
2023-02-23T16:50:23.048Z,2.20
2023-02-23T16:52:54.419Z,2.30
2023-02-23T16:55:26.394Z,1.80
2023-02-23T16:58:02.377Z,3.00
2023-02-23T17:00:31.620Z,2.60
2023-02-23T17:03:00.663Z,3.13
2023-02-23T17:05:29.161Z,2.33
2023-02-23T17:07:58.095Z,2.83
2023-02-23T17:10:30.547Z,2.78
2023-02-23T17:12:58.535Z,2.35
2023-02-23T17:15:29.098Z,2.97
2023-02-23T17:17:56.376Z,3.00
2023-02-23T17:20:25.840Z,2.53
2023-02-23T17:22:55.222Z,2.03
2023-02-23T17:25:24.342Z,2.30
2023-02-23T17:27:51.133Z,1.95
2023-02-23T17:30:17.798Z,1.73
2023-02-23T17:32:44.480Z,2.50
2023-02-23T17:35:11.394Z,1.50
2023-02-23T17:37:38.036Z,2.10
2023-02-23T17:40:09.778Z,1.88
2023-02-23T17:42:36.259Z,1.60
2023-02-23T17:45:06.313Z,1.73
2023-02-23T17:47:34.355Z,2.58
2023-02-23T17:50:01.699Z,1.70
2023-02-23T17:52:28.798Z,1.90
2023-02-23T17:54:55.633Z,1.57
2023-02-23T17:57:23.209Z,2.13
2023-02-23T17:59:49.843Z,1.73
2023-02-23T18:02:20.519Z,2.10
2023-02-23T18:04:48.374Z,1.60
2023-02-23T18:07:15.512Z,2.07
2023-02-23T18:09:42.048Z,1.65
2023-02-23T18:12:08.845Z,2.03
2023-02-23T18:14:35.639Z,2.13
2023-02-23T18:17:01.992Z,2.00
2023-02-23T18:19:28.453Z,1.47
2023-02-23T18:21:56.030Z,1.58
2023-02-23T18:24:27.429Z,1.20
2023-02-23T18:27:00.529Z,2.28
2023-02-23T18:29:32.018Z,2.10
2023-02-23T18:31:59.973Z,1.57
2023-02-23T18:34:28.705Z,2.72
2023-02-23T18:37:02.167Z,2.03
2023-02-23T18:39:31.041Z,1.85
2023-02-23T18:41:57.929Z,1.75
2023-02-23T18:44:24.382Z,1.60
2023-02-23T18:46:50.827Z,1.20
2023-02-23T18:49:20.721Z,1.52
2023-02-23T18:51:47.886Z,1.48
2023-02-23T18:54:16.896Z,1.80
2023-02-23T18:56:45.145Z,1.20
2023-02-23T18:59:12.257Z,1.52
2023-02-23T19:01:39.090Z,1.48
2023-02-23T19:04:08.038Z,1.35
2023-02-23T19:06:35.185Z,1.75
2023-02-23T19:09:04.157Z,1.50
2023-02-23T19:11:33.656Z,1.30
2023-02-23T19:14:06.260Z,1.30
2023-02-23T19:16:34.878Z,1.08
2023-02-23T19:19:03.560Z,1.40
2023-02-23T19:21:36.295Z,1.13
2023-02-23T19:24:05.418Z,1.25
2023-02-23T19:26:33.596Z,1.77
2023-02-23T19:29:00.652Z,1.10
2023-02-23T19:31:28.852Z,1.25
2023-02-23T19:33:57.482Z,1.73
2023-02-23T19:36:29.655Z,2.05
2023-02-23T19:39:06.133Z,1.65
2023-02-23T19:41:33.998Z,1.55
2023-02-23T19:44:00.555Z,1.75
2023-02-23T19:46:27.678Z,2.73
2023-02-23T19:48:54.583Z,2.15
2023-02-23T19:51:21.668Z,2.60
2023-02-23T19:53:48.498Z,2.20
2023-02-23T19:56:16.605Z,2.47
2023-02-23T19:58:46.478Z,2.37
2023-02-23T20:01:16.956Z,2.65
2023-02-23T20:03:45.338Z,2.78
2023-02-23T20:06:13.526Z,4.07
2023-02-23T20:08:41.518Z,3.08
2023-02-23T20:11:08.394Z,4.27
2023-02-23T20:13:35.628Z,3.67
2023-02-23T20:16:04.037Z,4.55
2023-02-23T20:18:30.534Z,5.20
2023-02-23T20:20:56.879Z,6.10
2023-02-23T20:23:23.286Z,6.33
2023-02-23T20:25:49.695Z,4.78
2023-02-23T20:28:16.133Z,5.53
2023-02-23T20:30:48.825Z,5.20
2023-02-23T20:33:15.486Z,5.38
2023-02-23T20:35:42.369Z,4.60
2023-02-23T20:38:08.886Z,4.75
2023-02-23T20:40:35.492Z,5.32
2023-02-23T20:43:01.858Z,5.25
2023-02-23T20:45:28.418Z,5.97
2023-02-23T20:47:55.613Z,4.50
2023-02-23T20:50:25.553Z,6.65
2023-02-23T20:52:52.004Z,9.18
2023-02-23T20:55:18.908Z,6.57
2023-02-23T20:57:47.344Z,6.85
2023-02-23T21:00:22.118Z,6.80
2023-02-23T21:02:55.263Z,6.82
2023-02-23T21:05:31.608Z,6.80
2023-02-23T21:08:04.050Z,5.88
2023-02-23T21:10:36.373Z,6.00
2023-02-23T21:13:12.001Z,5.47
2023-02-23T21:15:40.710Z,7.45
2023-02-23T21:18:10.136Z,7.85
2023-02-23T21:20:40.377Z,15.75
2023-02-23T21:23:07.888Z,13.57
2023-02-23T21:25:35.343Z,11.47
2023-02-23T21:28:05.814Z,10.20
2023-02-23T21:30:32.213Z,10.40
2023-02-23T21:33:00.142Z,10.95
2023-02-23T21:35:26.866Z,7.95
2023-02-23T21:37:53.364Z,4.37
2023-02-23T21:40:22.094Z,4.60
2023-02-23T21:42:49.632Z,5.20
2023-02-23T21:45:17.494Z,4.43
2023-02-23T21:47:45.970Z,5.38
2023-02-23T21:50:16.633Z,3.83
2023-02-23T21:52:45.408Z,4.50
2023-02-23T21:55:21.315Z,4.10
2023-02-23T21:57:48.125Z,3.15
2023-02-23T22:00:16.318Z,3.40
2023-02-23T22:02:46.245Z,3.23
2023-02-23T22:05:14.466Z,4.28
2023-02-23T22:07:41.431Z,3.70
2023-02-23T22:10:11.110Z,4.00
2023-02-23T22:12:37.514Z,4.63
2023-02-23T22:15:09.249Z,4.57
2023-02-23T22:17:38.544Z,3.95
2023-02-23T22:20:07.261Z,3.80
2023-02-23T22:22:36.183Z,2.90
2023-02-23T22:25:07.489Z,2.58
2023-02-23T22:27:33.870Z,2.30
2023-02-23T22:30:01.833Z,2.72
2023-02-23T22:32:32.691Z,3.15
2023-02-23T22:35:00.298Z,2.35
2023-02-23T22:37:31.533Z,2.75
2023-02-23T22:40:16.708Z,2.20
2023-02-23T22:42:49.762Z,2.20
2023-02-23T22:45:18.872Z,2.88
2023-02-23T22:47:45.403Z,2.10
2023-02-23T22:50:14.004Z,2.45
2023-02-23T22:52:40.773Z,2.60
2023-02-23T22:55:07.981Z,2.20
2023-02-23T22:57:34.355Z,2.55
2023-02-23T23:00:04.905Z,3.03
2023-02-23T23:02:36.089Z,2.88
2023-02-23T23:05:08.863Z,2.57
2023-02-23T23:07:35.426Z,3.38
2023-02-23T23:10:09.198Z,3.20
2023-02-23T23:12:38.104Z,3.13
2023-02-23T23:15:05.342Z,2.72
2023-02-23T23:17:35.856Z,3.10
2023-02-23T23:20:11.798Z,3.42
2023-02-23T23:22:45.534Z,4.20
2023-02-23T23:25:15.699Z,3.55
2023-02-23T23:27:44.828Z,3.60
2023-02-23T23:30:12.839Z,2.80
2023-02-23T23:32:40.687Z,2.95
2023-02-23T23:35:10.961Z,3.78
2023-02-23T23:37:39.798Z,3.80
2023-02-23T23:40:14.172Z,3.00
2023-02-23T23:42:45.829Z,2.93
2023-02-23T23:45:19.072Z,2.50
2023-02-23T23:47:46.645Z,3.13
2023-02-23T23:50:15.604Z,3.00
2023-02-23T23:52:45.946Z,2.50
2023-02-23T23:55:15.131Z,2.43
2023-02-23T23:57:42.183Z,3.05
